Time,TemperatureF,DewpointF,PressureIn,WindDirection,WindDirectionDegrees,WindSpeedMPH,WindSpeedGustMPH,Humidity,HourlyPrecipIn,Conditions,Clouds,dailyrainin,SolarRadiationWatts/m^2,SoftwareType,DateUTC
2013-06-28 00:43:00,86.0,62.0,29.97,South,175,2.0,2.0,45,-99.99,,,0.00,-31.000000,,2013-06-28 05:43:00,
2013-06-28 00:53:00,86.0,62.0,29.97,South,175,2.0,2.0,45,-99.99,,,0.00,-31.000000,,2013-06-28 05:53:00,
2013-06-28 01:02:00,86.0,62.0,29.97,South,175,2.0,2.0,45,-99.99,,,0.00,-31.000000,,2013-06-28 06:02:00,
2013-06-28 01:12:00,86.0,62.0,29.97,South,175,2.0,2.0,45,-99.99,,,0.00,-31.000000,,2013-06-28 06:12:00,
2013-06-28 01:42:00,85.0,61.0,29.95,South,175,4.0,5.0,45,0.00,,,0.00,-37.000000,,2013-06-28 06:42:00,
2013-06-28 01:52:00,85.0,61.0,29.95,South,175,4.0,5.0,45,0.00,,,0.00,-37.000000,,2013-06-28 06:52:00,
2013-06-28 02:01:00,85.0,61.0,29.95,South,175,4.0,5.0,45,0.00,,,0.00,-37.000000,,2013-06-28 07:01:00,
2013-06-28 02:11:00,85.0,61.0,29.95,South,175,4.0,5.0,45,0.00,,,0.00,-37.000000,,2013-06-28 07:11:00,
2013-06-28 02:42:00,83.0,62.0,29.94,South,176,2.0,2.0,50,0.00,,,0.00,-28.000000,,2013-06-28 07:42:00,
2013-06-28 02:52:00,83.0,62.0,29.94,South,176,2.0,2.0,50,0.00,,,0.00,-28.000000,,2013-06-28 07:52:00,
2013-06-28 03:01:00,83.0,62.0,29.94,South,176,2.0,2.0,50,0.00,,,0.00,-28.000000,,2013-06-28 08:01:00,
2013-06-28 03:11:00,83.0,62.0,29.94,South,176,2.0,2.0,50,0.00,,,0.00,-28.000000,,2013-06-28 08:11:00,
2013-06-28 03:43:00,79.0,62.0,29.95,South,177,2.0,2.0,57,0.00,,,-99.99,-20.000000,,2013-06-28 08:43:00,
2013-06-28 03:52:00,79.0,62.0,29.95,South,177,2.0,2.0,57,0.00,,,-99.99,-20.000000,,2013-06-28 08:52:00,
2013-06-28 04:02:00,79.0,62.0,29.95,South,177,2.0,2.0,57,0.00,,,-99.99,-20.000000,,2013-06-28 09:02:00,
2013-06-28 04:11:00,79.0,62.0,29.95,South,177,2.0,2.0,57,0.00,,,-99.99,-20.000000,,2013-06-28 09:11:00,
2013-06-28 06:02:00,82.0,59.0,29.91,South,177,5.0,5.0,45,0.00,,,0.00,-37.000000,,2013-06-28 11:02:00,
2013-06-28 06:11:00,82.0,59.0,29.91,South,177,5.0,5.0,45,0.00,,,0.00,-37.000000,,2013-06-28 11:11:00,
2013-06-28 06:43:00,79.0,61.0,29.95,South,178,2.0,2.0,54,0.00,,,0.00,-19.000000,,2013-06-28 11:43:00,
2013-06-28 06:53:00,79.0,61.0,29.95,South,178,2.0,2.0,54,0.00,,,0.00,-19.000000,,2013-06-28 11:53:00,
2013-06-28 07:02:00,79.0,61.0,29.95,South,178,2.0,2.0,54,0.00,,,0.00,-19.000000,,2013-06-28 12:02:00,
2013-06-28 07:12:00,79.0,61.0,29.95,South,178,2.0,2.0,54,0.00,,,0.00,-19.000000,,2013-06-28 12:12:00,
2013-06-28 07:43:00,81.0,60.0,29.95,South,177,2.0,2.0,50,0.00,,,0.00,4.000000,,2013-06-28 12:43:00,
2013-06-28 07:52:00,81.0,60.0,29.95,South,177,2.0,2.0,50,0.00,,,0.00,4.000000,,2013-06-28 12:52:00,
2013-06-28 08:01:00,81.0,60.0,29.95,South,177,2.0,2.0,50,0.00,,,0.00,4.000000,,2013-06-28 13:01:00,
2013-06-28 08:11:00,81.0,60.0,29.95,South,177,2.0,2.0,50,0.00,,,0.00,4.000000,,2013-06-28 13:11:00,
2013-06-28 08:43:00,82.0,63.0,29.97,South,176,2.0,2.0,53,0.00,,,0.00,75.000000,,2013-06-28 13:43:00,
2013-06-28 08:53:00,82.0,63.0,29.97,South,176,2.0,2.0,53,0.00,,,0.00,75.000000,,2013-06-28 13:53:00,
2013-06-28 09:02:00,82.0,63.0,29.97,South,176,2.0,2.0,53,0.00,,,0.00,75.000000,,2013-06-28 14:02:00,
2013-06-28 09:12:00,82.0,63.0,29.97,South,176,2.0,2.0,53,0.00,,,0.00,75.000000,,2013-06-28 14:12:00,
2013-06-28 09:44:00,83.0,63.0,29.97,South,174,4.0,5.0,51,0.00,,,0.00,84.000000,,2013-06-28 14:44:00,
2013-06-28 09:53:00,83.0,63.0,29.97,South,174,4.0,5.0,51,0.00,,,0.00,84.000000,,2013-06-28 14:53:00,
2013-06-28 10:02:00,83.0,63.0,29.97,South,174,4.0,5.0,51,0.00,,,0.00,84.000000,,2013-06-28 15:02:00,
2013-06-28 10:11:00,83.0,63.0,29.97,South,174,4.0,5.0,51,0.00,,,0.00,84.000000,,2013-06-28 15:11:00,
2013-06-28 11:01:00,87.0,60.0,29.97,South,172,4.0,4.0,40,0.00,,,0.00,388.000000,,2013-06-28 16:01:00,
2013-06-28 11:44:00,91.0,62.0,29.96,SSE,168,4.0,4.0,38,0.00,,,0.00,501.000000,,2013-06-28 16:44:00,
2013-06-28 11:53:00,91.0,62.0,29.96,SSE,168,4.0,4.0,38,0.00,,,0.00,501.000000,,2013-06-28 16:53:00,
2013-06-28 12:02:00,91.0,62.0,29.96,SSE,168,4.0,4.0,38,0.00,,,0.00,501.000000,,2013-06-28 17:02:00,
2013-06-28 12:11:00,91.0,62.0,29.96,SSE,168,4.0,4.0,38,0.00,,,0.00,501.000000,,2013-06-28 17:11:00,
2013-06-28 12:44:00,93.0,62.0,29.95,SSE,165,5.0,7.0,36,0.00,,,0.00,560.000000,,2013-06-28 17:44:00,
2013-06-28 12:52:00,93.0,62.0,29.95,SSE,165,5.0,7.0,36,0.00,,,0.00,560.000000,,2013-06-28 17:52:00,
2013-06-28 13:02:00,93.0,62.0,29.95,SSE,165,5.0,7.0,36,0.00,,,0.00,560.000000,,2013-06-28 18:02:00,
2013-06-28 13:11:00,93.0,62.0,29.95,SSE,165,5.0,7.0,36,0.00,,,0.00,560.000000,,2013-06-28 18:11:00,
2013-06-28 14:43:00,97.0,59.0,29.91,SSE,165,5.0,5.0,28,0.00,,,0.00,527.000000,,2013-06-28 19:43:00,
2013-06-28 14:53:00,97.0,59.0,29.91,SSE,165,5.0,5.0,28,0.00,,,0.00,527.000000,,2013-06-28 19:53:00,
2013-06-28 15:02:00,97.0,59.0,29.91,SSE,165,5.0,5.0,28,0.00,,,0.00,527.000000,,2013-06-28 20:02:00,
2013-06-28 15:11:00,97.0,59.0,29.91,SSE,165,5.0,5.0,28,0.00,,,0.00,527.000000,,2013-06-28 20:11:00,
2013-06-28 15:43:00,100.0,61.0,29.88,SSE,163,7.0,7.0,28,0.00,,,0.00,542.000000,,2013-06-28 20:43:00,
2013-06-28 15:52:00,100.0,61.0,29.88,SSE,163,7.0,7.0,28,0.00,,,0.00,542.000000,,2013-06-28 20:52:00,
2013-06-28 16:02:00,100.0,61.0,29.88,SSE,163,7.0,7.0,28,0.00,,,0.00,542.000000,,2013-06-28 21:02:00,
2013-06-28 16:11:00,100.0,61.0,29.88,SSE,163,7.0,7.0,28,0.00,,,0.00,542.000000,,2013-06-28 21:11:00,
2013-06-28 16:43:00,101.0,60.0,29.87,SSE,163,9.0,9.0,26,0.00,,,0.00,440.000000,,2013-06-28 21:43:00,
2013-06-28 16:53:00,101.0,60.0,29.87,SSE,163,9.0,9.0,26,0.00,,,0.00,440.000000,,2013-06-28 21:53:00,
2013-06-28 17:01:00,101.0,60.0,29.87,SSE,163,9.0,9.0,26,0.00,,,0.00,440.000000,,2013-06-28 22:01:00,
2013-06-28 17:11:00,101.0,60.0,29.87,SSE,163,9.0,9.0,26,0.00,,,0.00,440.000000,,2013-06-28 22:11:00,
2013-06-28 17:43:00,100.0,62.0,29.87,SSE,162,5.0,5.0,29,0.00,,,0.00,331.000000,,2013-06-28 22:43:00,
2013-06-28 17:52:00,100.0,62.0,29.87,SSE,162,5.0,5.0,29,0.00,,,0.00,331.000000,,2013-06-28 22:52:00,
2013-06-28 18:01:00,100.0,62.0,29.87,SSE,162,5.0,5.0,29,0.00,,,0.00,331.000000,,2013-06-28 23:01:00,
2013-06-28 18:11:00,100.0,62.0,29.87,SSE,162,5.0,5.0,29,0.00,,,0.00,331.000000,,2013-06-28 23:11:00,
2013-06-28 18:43:00,98.0,64.0,29.87,SSE,163,7.0,9.0,33,0.00,,,0.00,180.000000,,2013-06-28 23:43:00,
2013-06-28 18:53:00,98.0,64.0,29.87,SSE,163,7.0,9.0,33,0.00,,,0.00,180.000000,,2013-06-28 23:53:00,
2013-06-28 19:02:00,98.0,64.0,29.87,SSE,163,7.0,9.0,33,0.00,,,0.00,180.000000,,2013-06-29 00:02:00,
2013-06-28 19:11:00,98.0,64.0,29.87,SSE,163,7.0,9.0,33,0.00,,,0.00,180.000000,,2013-06-29 00:11:00,
2013-06-28 20:42:00,93.0,65.0,29.86,SSE,166,4.0,5.0,40,0.00,,,0.00,-27.000000,,2013-06-29 01:42:00,
2013-06-28 20:52:00,93.0,65.0,29.86,SSE,166,4.0,5.0,40,0.00,,,0.00,-27.000000,,2013-06-29 01:52:00,
2013-06-28 21:01:00,93.0,65.0,29.86,SSE,166,4.0,5.0,40,0.00,,,0.00,-27.000000,,2013-06-29 02:01:00,
2013-06-28 21:11:00,93.0,65.0,29.86,SSE,166,4.0,5.0,40,0.00,,,0.00,-27.000000,,2013-06-29 02:11:00,
2013-06-28 21:41:00,90.0,62.0,29.88,South,169,4.0,5.0,40,0.00,,,0.00,-37.000000,,2013-06-29 02:41:00,
2013-06-28 21:51:00,90.0,62.0,29.88,South,169,4.0,5.0,40,0.00,,,0.00,-37.000000,,2013-06-29 02:51:00,
2013-06-28 22:01:00,90.0,62.0,29.88,South,169,4.0,5.0,40,0.00,,,0.00,-37.000000,,2013-06-29 03:01:00,
2013-06-28 22:11:00,90.0,62.0,29.88,South,169,4.0,5.0,40,0.00,,,0.00,-37.000000,,2013-06-29 03:11:00,
2013-06-28 22:41:00,86.0,65.0,29.88,South,172,2.0,2.0,50,0.00,,,0.00,-39.000000,,2013-06-29 03:41:00,
2013-06-28 22:51:00,86.0,65.0,29.88,South,172,2.0,2.0,50,0.00,,,0.00,-39.000000,,2013-06-29 03:51:00,
2013-06-28 23:01:00,86.0,65.0,29.88,South,172,2.0,2.0,50,0.00,,,0.00,-39.000000,,2013-06-29 04:01:00,
2013-06-28 23:11:00,86.0,65.0,29.88,South,172,2.0,2.0,50,0.00,,,0.00,-39.000000,,2013-06-29 04:11:00,